createdAt,value
2022-10-15T00:00:40.794Z,13.73
2022-10-15T00:03:07.298Z,11.82
2022-10-15T00:05:37.061Z,13.73
2022-10-15T00:08:03.888Z,12.40
2022-10-15T00:10:30.761Z,11.02
2022-10-15T00:12:57.309Z,11.85
2022-10-15T00:15:23.924Z,13.30
2022-10-15T00:17:50.470Z,12.93
2022-10-15T00:20:17.740Z,12.38
2022-10-15T00:22:44.431Z,15.02
2022-10-15T00:25:11.166Z,13.65
2022-10-15T00:27:37.689Z,12.00
2022-10-15T00:30:06.207Z,12.10
2022-10-15T00:32:33.372Z,11.73
2022-10-15T00:34:59.857Z,12.70
2022-10-15T00:37:26.472Z,10.95
2022-10-15T00:39:53.009Z,10.95
2022-10-15T00:42:19.599Z,11.18
2022-10-15T00:44:57.476Z,10.40
2022-10-15T00:47:39.912Z,10.98
2022-10-15T00:50:10.871Z,11.55
2022-10-15T00:52:57.433Z,13.35
2022-10-15T00:55:32.769Z,10.32
2022-10-15T00:58:05.636Z,13.10
2022-10-15T01:00:32.759Z,11.85
2022-10-15T01:02:59.676Z,12.68
2022-10-15T01:05:27.020Z,14.48
2022-10-15T01:07:53.475Z,12.27
2022-10-15T01:10:21.693Z,13.07
2022-10-15T01:13:21.488Z,12.98
2022-10-15T01:15:56.259Z,13.57
2022-10-15T01:18:27.155Z,15.00
2022-10-15T01:21:08.832Z,12.63
2022-10-15T01:23:53.679Z,10.35
2022-10-15T01:26:53.276Z,11.48
2022-10-15T01:29:57.202Z,10.90
2022-10-15T01:32:27.402Z,11.35
2022-10-15T01:35:22.825Z,11.20
2022-10-15T01:37:59.050Z,10.65
2022-10-15T01:40:43.756Z,11.00
2022-10-15T01:43:17.051Z,10.80
2022-10-15T01:45:52.403Z,12.10
2022-10-15T01:48:19.785Z,11.90
2022-10-15T01:50:51.150Z,12.88
2022-10-15T01:53:26.386Z,13.80
2022-10-15T01:55:58.096Z,12.20
2022-10-15T01:58:25.488Z,13.55
2022-10-15T02:00:54.928Z,11.77
2022-10-15T02:03:21.448Z,12.80
2022-10-15T02:05:55.654Z,12.45
2022-10-15T02:08:37.994Z,10.93
2022-10-15T02:11:09.047Z,12.00
2022-10-15T02:14:01.370Z,10.70
2022-10-15T02:16:50.122Z,11.20
2022-10-15T02:19:41.058Z,10.25
2022-10-15T02:22:33.639Z,10.65
2022-10-15T02:25:14.130Z,10.05
2022-10-15T02:27:42.395Z,10.25
2022-10-15T02:30:10.092Z,10.85
2022-10-15T02:32:40.607Z,9.25
2022-10-15T02:35:10.326Z,11.02
2022-10-15T02:37:38.389Z,10.25
2022-10-15T02:40:05.397Z,9.60
2022-10-15T02:42:31.850Z,9.73
2022-10-15T02:44:58.309Z,11.35
2022-10-15T02:49:56.248Z,12.00
2022-10-15T02:52:26.086Z,20.85
2022-10-15T02:54:52.726Z,14.68
2022-10-15T02:57:19.287Z,13.93
2022-10-15T02:59:45.752Z,15.93
2022-10-15T03:02:15.354Z,14.15
2022-10-15T03:04:45.031Z,13.98
2022-10-15T03:07:11.562Z,13.63
2022-10-15T03:09:38.026Z,13.02
2022-10-15T03:12:04.949Z,14.90
2022-10-15T03:14:31.400Z,13.27
2022-10-15T03:16:57.879Z,12.13
2022-10-15T03:19:24.351Z,12.23
2022-10-15T03:21:50.825Z,12.52
2022-10-15T03:24:17.318Z,12.75
2022-10-15T03:26:43.799Z,12.13
2022-10-15T03:29:10.258Z,13.38
2022-10-15T03:31:36.784Z,13.27
2022-10-15T03:34:03.599Z,14.95
2022-10-15T03:36:30.084Z,13.35
2022-10-15T03:38:56.606Z,13.13
2022-10-15T03:41:23.110Z,13.52
2022-10-15T03:43:49.576Z,12.02
2022-10-15T03:46:16.529Z,13.52
2022-10-15T03:48:43.088Z,11.82
2022-10-15T03:51:09.572Z,13.38
2022-10-15T03:53:36.075Z,11.95
2022-10-15T03:56:06.630Z,11.25
2022-10-15T03:58:34.346Z,11.32
2022-10-15T04:01:00.907Z,10.77
2022-10-15T04:03:27.549Z,11.18
2022-10-15T04:05:55.357Z,10.82
2022-10-15T04:08:23.537Z,10.48
2022-10-15T04:10:51.026Z,11.50
2022-10-15T04:13:17.545Z,12.20
2022-10-15T04:15:44.072Z,11.18
2022-10-15T04:18:11.589Z,11.63
2022-10-15T04:20:38.640Z,11.30
2022-10-15T04:23:05.126Z,11.15
2022-10-15T04:25:31.688Z,11.93
2022-10-15T04:27:58.188Z,11.63
2022-10-15T04:30:24.729Z,13.07
2022-10-15T04:32:54.430Z,13.43
2022-10-15T04:35:21.896Z,13.90
2022-10-15T04:37:48.669Z,13.93
2022-10-15T04:40:16.039Z,13.52
2022-10-15T04:42:42.553Z,13.82
2022-10-15T04:45:09.413Z,14.32
2022-10-15T04:47:36.122Z,13.85
2022-10-15T04:50:02.679Z,13.55
2022-10-15T04:52:29.438Z,13.23
2022-10-15T04:54:55.929Z,12.60
2022-10-15T04:57:22.710Z,12.73
2022-10-15T04:59:52.704Z,13.38
2022-10-15T05:02:22.128Z,12.93
2022-10-15T05:04:48.743Z,12.23
2022-10-15T05:07:15.468Z,12.23
2022-10-15T05:09:46.140Z,12.95
2022-10-15T05:12:12.895Z,12.77
2022-10-15T05:14:39.431Z,14.70
2022-10-15T05:17:05.914Z,15.32
2022-10-15T05:19:32.397Z,15.07
2022-10-15T05:21:58.867Z,14.95
2022-10-15T05:24:25.375Z,14.73
2022-10-15T05:26:51.905Z,14.20
2022-10-15T05:29:18.507Z,13.25
2022-10-15T05:31:46.032Z,14.27
2022-10-15T05:34:12.689Z,11.77
2022-10-15T05:36:39.241Z,11.63
2022-10-15T05:39:10.381Z,11.05
2022-10-15T05:41:37.037Z,11.32
2022-10-15T05:44:03.650Z,11.15
2022-10-15T05:46:30.153Z,12.10
2022-10-15T05:48:57.901Z,11.40
2022-10-15T05:51:26.233Z,11.15
2022-10-15T05:53:54.131Z,12.50
2022-10-15T05:56:20.922Z,11.73
2022-10-15T05:58:47.818Z,11.40
2022-10-15T06:01:15.045Z,11.52
2022-10-15T06:03:43.026Z,11.38
2022-10-15T06:06:25.054Z,11.05
2022-10-15T06:08:52.262Z,11.52
2022-10-15T06:11:19.798Z,12.13
2022-10-15T06:13:47.071Z,12.75
2022-10-15T06:16:18.038Z,14.18
2022-10-15T06:18:47.571Z,12.55
2022-10-15T06:21:14.098Z,12.80
2022-10-15T06:23:40.702Z,13.38
2022-10-15T06:26:09.267Z,12.25
2022-10-15T06:28:37.296Z,11.68
2022-10-15T06:31:04.297Z,10.93
2022-10-15T06:33:31.889Z,10.50
2022-10-15T06:36:06.902Z,10.93
2022-10-15T06:38:33.917Z,9.60
2022-10-15T06:41:03.514Z,9.63
2022-10-15T06:43:32.601Z,9.90
2022-10-15T06:46:04.096Z,10.18
2022-10-15T06:48:30.680Z,15.93
2022-10-15T06:50:59.328Z,15.02
2022-10-15T06:53:25.834Z,13.90
2022-10-15T06:55:52.307Z,13.65
2022-10-15T06:58:18.783Z,12.98
2022-10-15T07:00:45.260Z,12.00
2022-10-15T07:03:11.747Z,11.80
2022-10-15T07:05:38.215Z,11.10
2022-10-15T07:08:05.202Z,11.25
2022-10-15T07:10:31.732Z,10.77
2022-10-15T07:13:01.958Z,12.57
2022-10-15T07:15:29.586Z,13.05
2022-10-15T07:17:56.897Z,13.40
2022-10-15T07:20:24.445Z,14.25
2022-10-15T07:22:55.757Z,14.77
2022-10-15T07:25:22.414Z,14.35
2022-10-15T07:27:48.941Z,16.77
2022-10-15T07:30:15.604Z,17.63
2022-10-15T07:32:44.475Z,16.60
2022-10-15T07:35:13.048Z,13.15
2022-10-15T07:37:39.539Z,11.68
2022-10-15T07:40:07.149Z,11.07
2022-10-15T07:42:33.622Z,11.88
2022-10-15T07:45:00.166Z,11.43
2022-10-15T07:47:26.839Z,10.40
2022-10-15T07:49:53.394Z,10.23
2022-10-15T07:52:19.938Z,8.50
2022-10-15T07:54:46.400Z,8.63
2022-10-15T07:57:12.862Z,6.97
2022-10-15T07:59:39.377Z,6.55
2022-10-15T08:02:06.145Z,6.57
2022-10-15T08:04:34.979Z,5.60
2022-10-15T08:07:01.896Z,5.82
2022-10-15T08:09:28.481Z,5.25
2022-10-15T08:11:55.022Z,5.15
2022-10-15T08:14:21.519Z,4.82
2022-10-15T08:16:48.029Z,4.22
2022-10-15T08:19:17.551Z,4.10
2022-10-15T08:21:47.392Z,3.70
2022-10-15T08:24:14.244Z,3.88
2022-10-15T08:26:40.782Z,3.58
2022-10-15T08:29:07.382Z,2.78
2022-10-15T08:31:34.027Z,2.30
2022-10-15T08:34:01.395Z,2.33
2022-10-15T08:36:27.969Z,2.28
2022-10-15T08:38:54.494Z,2.58
2022-10-15T08:41:36.585Z,2.13
2022-10-15T08:44:03.850Z,2.20
2022-10-15T08:46:49.067Z,2.08
2022-10-15T08:49:40.445Z,1.85
2022-10-15T08:52:42.969Z,1.58
2022-10-15T08:55:13.284Z,2.35
2022-10-15T08:57:46.839Z,1.80
2022-10-15T09:00:23.464Z,1.55
2022-10-15T09:05:27.098Z,1.40
2022-10-15T09:08:03.903Z,1.85
2022-10-15T09:10:47.603Z,1.33
2022-10-15T09:13:33.511Z,1.70
2022-10-15T09:16:05.816Z,1.45
2022-10-15T09:18:35.747Z,1.42
2022-10-15T09:21:05.075Z,1.42
2022-10-15T09:23:36.036Z,1.27
2022-10-15T09:26:05.885Z,1.17
2022-10-15T09:28:46.598Z,0.90
2022-10-15T09:31:19.779Z,1.25
2022-10-15T09:34:18.634Z,1.15
2022-10-15T09:36:54.941Z,1.48
2022-10-15T09:39:30.979Z,0.95
2022-10-15T09:42:19.771Z,1.05
2022-10-15T09:44:47.365Z,0.88
2022-10-15T09:47:23.155Z,1.02
2022-10-15T09:49:49.761Z,0.80
2022-10-15T09:52:40.719Z,1.05
2022-10-15T09:55:33.431Z,0.90
2022-10-15T09:58:06.845Z,1.20
2022-10-15T10:00:58.010Z,1.10
2022-10-15T10:03:27.323Z,1.08
2022-10-15T10:06:03.666Z,0.98
2022-10-15T10:08:38.616Z,0.80
2022-10-15T10:11:08.699Z,1.13
2022-10-15T10:13:46.921Z,0.90
2022-10-15T10:16:15.398Z,1.00
2022-10-15T10:18:50.279Z,1.00
2022-10-15T10:21:33.211Z,1.38
2022-10-15T10:24:20.355Z,1.75
2022-10-15T10:26:48.320Z,1.20
2022-10-15T10:29:33.448Z,1.30
2022-10-15T10:32:20.771Z,1.50
2022-10-15T10:34:52.394Z,1.10
2022-10-15T10:37:19.944Z,1.40
2022-10-15T10:39:52.728Z,1.02
2022-10-15T10:42:20.038Z,1.20
2022-10-15T10:44:46.958Z,1.20
2022-10-15T10:47:38.147Z,0.90
2022-10-15T10:50:29.868Z,1.30
2022-10-15T10:52:57.538Z,1.00
2022-10-15T10:55:39.072Z,1.10
2022-10-15T10:58:09.851Z,1.23
2022-10-15T11:00:40.983Z,0.80
2022-10-15T11:03:27.949Z,1.08
2022-10-15T11:08:37.567Z,3.25
2022-10-15T11:11:29.526Z,0.80
2022-10-15T11:14:17.766Z,1.17
2022-10-15T11:17:03.009Z,1.13
2022-10-15T11:20:20.074Z,1.05
2022-10-15T11:22:43.795Z,24.63
2022-10-15T11:25:22.411Z,1.10
2022-10-15T11:28:04.392Z,1.02
2022-10-15T11:30:59.195Z,0.63
2022-10-15T11:33:37.916Z,1.00
2022-10-15T11:36:33.195Z,1.00
2022-10-15T11:39:11.662Z,1.00
2022-10-15T11:42:00.217Z,0.88
2022-10-15T11:44:32.790Z,0.65
2022-10-15T11:47:14.626Z,0.77
2022-10-15T11:49:48.174Z,0.82
2022-10-15T11:52:25.855Z,1.23
2022-10-15T11:55:18.338Z,1.10
2022-10-15T11:57:47.803Z,1.00
2022-10-15T12:00:46.971Z,1.15
2022-10-15T12:03:22.924Z,1.27
2022-10-15T12:05:56.892Z,1.30
2022-10-15T12:08:26.632Z,1.10
2022-10-15T12:11:24.473Z,1.02
2022-10-15T12:14:15.624Z,1.50
2022-10-15T12:16:42.096Z,1.45
2022-10-15T12:19:15.210Z,1.23
2022-10-15T12:22:10.753Z,1.15
2022-10-15T12:24:48.627Z,1.10
2022-10-15T12:27:30.313Z,1.30
2022-10-15T12:29:59.821Z,1.10
2022-10-15T12:32:27.863Z,1.70
2022-10-15T12:35:07.871Z,1.13
2022-10-15T12:37:38.580Z,1.10
2022-10-15T12:40:27.182Z,1.38
2022-10-15T12:43:12.842Z,1.52
2022-10-15T12:45:41.488Z,1.50
2022-10-15T12:48:07.905Z,1.50
2022-10-15T12:50:37.247Z,1.60
2022-10-15T12:53:23.522Z,1.40
2022-10-15T12:56:13.669Z,1.33
2022-10-15T12:58:41.124Z,1.52
2022-10-15T13:01:13.731Z,1.20
2022-10-15T13:03:49.546Z,1.30
2022-10-15T13:06:21.903Z,1.58
2022-10-15T13:08:54.584Z,1.90
2022-10-15T13:11:29.074Z,1.70
2022-10-15T13:14:19.935Z,1.63
2022-10-15T13:16:48.343Z,1.98
2022-10-15T13:19:28.401Z,1.60
2022-10-15T13:22:01.035Z,1.88
2022-10-15T13:24:30.260Z,1.50
2022-10-15T13:26:59.894Z,1.67
2022-10-15T13:29:27.778Z,1.60
2022-10-15T13:31:57.686Z,1.73
2022-10-15T13:34:30.668Z,1.75
2022-10-15T13:36:59.517Z,2.03
2022-10-15T13:39:35.383Z,1.95
2022-10-15T13:42:10.384Z,1.50
2022-10-15T13:44:37.056Z,2.17
2022-10-15T13:47:19.126Z,1.63
2022-10-15T13:49:45.606Z,2.05
2022-10-15T13:52:12.042Z,2.13
2022-10-15T13:54:38.871Z,1.85
2022-10-15T13:57:05.510Z,2.45
2022-10-15T13:59:32.169Z,1.98
2022-10-15T14:02:01.809Z,2.00
2022-10-15T14:04:30.178Z,1.98
2022-10-15T14:07:05.087Z,1.98
2022-10-15T14:09:38.448Z,1.80
2022-10-15T14:12:07.332Z,2.03
2022-10-15T14:14:41.996Z,1.80
2022-10-15T14:17:30.113Z,1.67
2022-10-15T14:20:26.246Z,1.60
2022-10-15T14:22:52.383Z,1.83
2022-10-15T14:25:23.815Z,1.75
2022-10-15T14:27:50.986Z,1.90
2022-10-15T14:30:31.631Z,1.50
2022-10-15T14:32:58.175Z,1.90
2022-10-15T14:35:32.169Z,1.92
2022-10-15T14:38:16.388Z,1.70
2022-10-15T14:41:04.874Z,2.03
2022-10-15T14:43:37.677Z,2.17
2022-10-15T14:46:12.713Z,1.80
2022-10-15T14:48:40.654Z,1.85
2022-10-15T14:51:14.153Z,1.58
2022-10-15T14:53:45.736Z,1.67
2022-10-15T14:56:20.251Z,1.85
2022-10-15T14:58:52.250Z,2.22
2022-10-15T15:01:20.824Z,1.70
2022-10-15T15:03:55.719Z,1.48
2022-10-15T15:06:22.417Z,1.33
2022-10-15T15:08:48.949Z,1.70
2022-10-15T15:11:21.322Z,1.55
2022-10-15T15:13:48.175Z,1.90
2022-10-15T15:16:17.202Z,1.95
2022-10-15T15:18:46.100Z,1.70
2022-10-15T15:21:30.435Z,2.00
2022-10-15T15:23:56.970Z,1.85
2022-10-15T15:26:24.550Z,1.77
2022-10-15T15:28:51.093Z,1.58
2022-10-15T15:31:18.703Z,2.05
2022-10-15T15:33:45.484Z,2.10
2022-10-15T15:36:17.641Z,1.92
2022-10-15T15:38:49.971Z,1.85
2022-10-15T15:41:19.138Z,2.38
2022-10-15T15:43:45.976Z,2.08
2022-10-15T15:46:12.920Z,1.92
2022-10-15T15:48:39.407Z,1.85
2022-10-15T15:51:22.299Z,1.70
2022-10-15T15:53:48.857Z,1.90
2022-10-15T15:56:15.306Z,1.83
2022-10-15T15:58:41.890Z,2.10
2022-10-15T16:01:08.428Z,2.30
2022-10-15T16:03:34.938Z,2.40
2022-10-15T16:06:01.386Z,2.42
2022-10-15T16:08:27.878Z,2.10
2022-10-15T16:10:54.347Z,2.38
2022-10-15T16:13:20.850Z,2.55
2022-10-15T16:15:47.390Z,2.10
2022-10-15T16:18:13.875Z,2.50
2022-10-15T16:20:46.253Z,2.30
2022-10-15T16:23:14.968Z,2.47
2022-10-15T16:25:41.584Z,2.47
2022-10-15T16:28:08.096Z,2.20
2022-10-15T16:30:34.810Z,2.28
2022-10-15T16:33:01.383Z,2.00
2022-10-15T16:35:27.938Z,2.60
2022-10-15T16:37:56.194Z,2.28
2022-10-15T16:40:23.038Z,2.65
2022-10-15T16:42:49.545Z,2.90
2022-10-15T16:45:16.295Z,2.83
2022-10-15T16:47:42.841Z,2.33
2022-10-15T16:50:09.438Z,2.60
2022-10-15T16:52:36.035Z,2.65
2022-10-15T16:55:02.770Z,2.67
2022-10-15T16:57:29.255Z,1.90
2022-10-15T16:59:55.788Z,3.05
2022-10-15T17:02:22.722Z,2.25
2022-10-15T17:04:49.408Z,2.38
2022-10-15T17:07:16.010Z,2.75
2022-10-15T17:09:44.812Z,2.25
2022-10-15T17:12:11.453Z,2.92
2022-10-15T17:14:37.969Z,2.65
2022-10-15T17:17:04.459Z,2.60
2022-10-15T17:19:33.367Z,2.80
2022-10-15T17:22:00.855Z,2.65
2022-10-15T17:24:27.330Z,2.70
2022-10-15T17:26:54.738Z,2.97
2022-10-15T17:29:22.978Z,3.25
2022-10-15T17:31:50.530Z,3.15
2022-10-15T17:34:17.944Z,3.00
2022-10-15T17:36:47.312Z,3.10
2022-10-15T17:39:19.257Z,2.67
2022-10-15T17:41:46.947Z,2.70
2022-10-15T17:44:14.038Z,3.25
2022-10-15T17:46:40.675Z,3.95
2022-10-15T17:49:09.601Z,2.92
2022-10-15T17:51:37.280Z,2.70
2022-10-15T17:54:03.820Z,2.08
2022-10-15T17:56:32.777Z,2.58
2022-10-15T17:59:01.610Z,3.65
2022-10-15T18:01:56.657Z,1.90
2022-10-15T18:04:17.392Z,2.08
2022-10-15T18:06:45.171Z,2.25
2022-10-15T18:09:11.675Z,2.85
2022-10-15T18:11:38.261Z,2.50
2022-10-15T18:14:04.799Z,2.85
2022-10-15T18:16:32.274Z,2.20
2022-10-15T18:18:58.957Z,2.05
2022-10-15T18:21:26.330Z,2.10
2022-10-15T18:23:52.929Z,2.25
2022-10-15T18:26:21.515Z,3.38
2022-10-15T18:28:50.504Z,2.33
2022-10-15T18:31:18.124Z,1.95
2022-10-15T18:33:46.766Z,1.67
2022-10-15T18:36:16.957Z,2.03
2022-10-15T18:38:43.726Z,2.00
2022-10-15T18:41:19.573Z,2.45
2022-10-15T18:43:51.324Z,3.05
2022-10-15T18:46:18.377Z,2.70
2022-10-15T18:48:44.954Z,2.50
2022-10-15T18:51:12.107Z,2.95
2022-10-15T18:53:39.565Z,2.58
2022-10-15T18:56:07.888Z,2.58
2022-10-15T18:58:34.687Z,2.88
2022-10-15T19:01:41.705Z,2.88
2022-10-15T19:04:11.506Z,2.63
2022-10-15T19:06:46.968Z,2.95
2022-10-15T19:09:16.156Z,2.80
2022-10-15T19:11:45.273Z,2.40
2022-10-15T19:14:12.506Z,2.50
2022-10-15T19:16:39.324Z,2.60
2022-10-15T19:19:06.077Z,3.05
2022-10-15T19:21:32.664Z,3.00
2022-10-15T19:23:59.653Z,3.15
2022-10-15T19:26:26.961Z,3.10
2022-10-15T19:28:53.566Z,3.45
2022-10-15T19:31:26.145Z,3.03
2022-10-15T19:33:53.891Z,2.92
2022-10-15T19:36:26.858Z,4.18
2022-10-15T19:38:53.548Z,5.00
2022-10-15T19:41:20.143Z,3.50
2022-10-15T19:43:47.222Z,3.75
2022-10-15T19:46:13.995Z,3.10
2022-10-15T19:48:40.495Z,3.53
2022-10-15T19:51:07.094Z,3.22
2022-10-15T19:53:33.883Z,3.03
2022-10-15T19:56:03.619Z,3.38
2022-10-15T19:58:30.716Z,2.67
2022-10-15T20:00:57.946Z,3.35
2022-10-15T20:03:26.960Z,2.97
2022-10-15T20:05:53.947Z,3.33
2022-10-15T20:08:20.548Z,2.92
2022-10-15T20:10:48.802Z,2.92
2022-10-15T20:13:15.735Z,3.25
2022-10-15T20:15:43.602Z,4.05
2022-10-15T20:18:10.297Z,3.45
2022-10-15T20:20:38.534Z,3.65
2022-10-15T20:23:05.340Z,4.50
2022-10-15T20:25:32.320Z,4.20
2022-10-15T20:27:59.414Z,4.93
2022-10-15T20:30:26.021Z,3.88
2022-10-15T20:32:52.507Z,3.75
2022-10-15T20:35:20.257Z,4.05
2022-10-15T20:37:47.435Z,3.72
2022-10-15T20:40:14.156Z,3.72
2022-10-15T20:42:40.987Z,3.88
2022-10-15T20:45:10.985Z,3.33
2022-10-15T20:47:41.904Z,2.95
2022-10-15T20:50:15.890Z,3.85
2022-10-15T20:52:43.040Z,3.53
2022-10-15T20:55:10.564Z,3.88
2022-10-15T20:57:38.110Z,3.58
2022-10-15T21:00:06.791Z,3.83
2022-10-15T21:02:33.383Z,3.90
2022-10-15T21:04:59.852Z,3.67
2022-10-15T21:07:26.461Z,3.65
2022-10-15T21:09:53.069Z,4.13
2022-10-15T21:12:19.555Z,4.30
2022-10-15T21:14:46.385Z,4.88
2022-10-15T21:17:12.981Z,4.85
2022-10-15T21:19:39.468Z,4.30
2022-10-15T21:22:05.986Z,4.28
2022-10-15T21:24:34.722Z,3.83
2022-10-15T21:27:01.639Z,4.25
2022-10-15T21:29:28.294Z,3.88
2022-10-15T21:31:54.834Z,4.35
2022-10-15T21:34:22.715Z,4.15
2022-10-15T21:36:49.227Z,4.07
2022-10-15T21:39:16.268Z,8.43
2022-10-15T21:41:42.742Z,296.83
2022-10-15T21:44:09.219Z,999.90
2022-10-15T21:46:36.222Z,999.90
2022-10-15T21:49:04.002Z,999.90
2022-10-15T21:51:33.507Z,999.90
2022-10-15T21:54:00.167Z,999.90
2022-10-15T21:56:27.142Z,999.90
2022-10-15T21:58:54.541Z,999.90
2022-10-15T22:01:27.109Z,999.90
2022-10-15T22:03:59.429Z,999.90
2022-10-15T22:06:26.068Z,999.90
2022-10-15T22:08:55.513Z,999.90
2022-10-15T22:11:28.722Z,999.90
2022-10-15T22:14:00.714Z,999.90
2022-10-15T22:16:28.613Z,4.05
2022-10-15T22:18:56.414Z,3.42
2022-10-15T22:21:27.111Z,4.38
2022-10-15T22:24:08.321Z,4.60
2022-10-15T22:26:37.784Z,3.67
2022-10-15T22:29:06.051Z,4.65
2022-10-15T22:31:33.064Z,4.97
2022-10-15T22:33:59.751Z,3.92
2022-10-15T22:36:28.846Z,4.35
2022-10-15T22:38:57.309Z,3.90
2022-10-15T22:41:24.130Z,4.35
2022-10-15T22:43:51.166Z,4.10
2022-10-15T22:46:17.764Z,3.88
2022-10-15T22:48:44.509Z,4.80
2022-10-15T22:51:13.268Z,3.83
2022-10-15T22:53:40.437Z,4.40
2022-10-15T22:56:11.253Z,999.90
2022-10-15T22:58:37.923Z,999.90
2022-10-15T23:01:38.393Z,30.42
2022-10-15T23:04:06.808Z,3.65
2022-10-15T23:06:36.102Z,4.13
2022-10-15T23:09:04.312Z,4.28
2022-10-15T23:11:37.707Z,999.90
2022-10-15T23:14:06.794Z,999.90
2022-10-15T23:16:42.053Z,999.90
2022-10-15T23:19:21.102Z,999.90
2022-10-15T23:21:48.808Z,999.90
2022-10-15T23:24:16.878Z,999.90
2022-10-15T23:26:43.667Z,999.90
2022-10-15T23:29:18.736Z,999.90
2022-10-15T23:31:46.337Z,999.90
2022-10-15T23:34:18.969Z,999.90
2022-10-15T23:36:45.634Z,999.90
2022-10-15T23:39:16.306Z,999.90
2022-10-15T23:41:43.358Z,999.90
2022-10-15T23:44:10.116Z,999.90
2022-10-15T23:46:36.926Z,999.90
2022-10-15T23:49:04.249Z,999.90
2022-10-15T23:51:32.040Z,999.90
2022-10-15T23:53:59.706Z,999.90
2022-10-15T23:56:26.743Z,999.90
2022-10-15T23:58:55.773Z,999.90
